sensor_id;sensor_type;location;lat;lon;timestamp;pressure;altitude;pressure_sealevel;temperature;humidity
22964;BME280;11648;49.306;6.934;2023-10-31T00:01:21;96927.88;;;16.19;72.45
22964;BME280;11648;49.306;6.934;2023-10-31T00:03:48;96918.22;;;16.32;71.85
22964;BME280;11648;49.306;6.934;2023-10-31T00:06:15;96920.19;;;16.44;71.74
22964;BME280;11648;49.306;6.934;2023-10-31T00:08:42;96920.00;;;16.47;71.54
22964;BME280;11648;49.306;6.934;2023-10-31T00:11:08;96920.44;;;16.40;71.83
22964;BME280;11648;49.306;6.934;2023-10-31T00:13:35;96918.06;;;16.35;71.78
22964;BME280;11648;49.306;6.934;2023-10-31T00:16:02;96916.53;;;16.31;72.01
22964;BME280;11648;49.306;6.934;2023-10-31T00:18:30;96914.47;;;16.36;71.74
22964;BME280;11648;49.306;6.934;2023-10-31T00:20:56;96909.16;;;16.36;71.67
22964;BME280;11648;49.306;6.934;2023-10-31T00:23:23;96909.97;;;16.22;72.34
22964;BME280;11648;49.306;6.934;2023-10-31T00:25:50;96913.81;;;16.17;72.55
22964;BME280;11648;49.306;6.934;2023-10-31T00:28:17;96915.53;;;16.02;73.19
22964;BME280;11648;49.306;6.934;2023-10-31T00:30:43;96921.94;;;16.29;72.70
22964;BME280;11648;49.306;6.934;2023-10-31T00:33:10;96913.56;;;16.06;73.06
22964;BME280;11648;49.306;6.934;2023-10-31T00:35:37;96912.63;;;16.22;72.89
22964;BME280;11648;49.306;6.934;2023-10-31T00:38:04;96902.84;;;16.23;72.72
22964;BME280;11648;49.306;6.934;2023-10-31T00:40:31;96906.47;;;16.06;73.46
22964;BME280;11648;49.306;6.934;2023-10-31T00:42:58;96903.59;;;16.25;72.78
22964;BME280;11648;49.306;6.934;2023-10-31T00:45:27;96908.22;;;16.37;72.51
22964;BME280;11648;49.306;6.934;2023-10-31T00:47:54;96905.16;;;16.29;72.70
22964;BME280;11648;49.306;6.934;2023-10-31T00:50:20;96911.25;;;16.15;73.15
22964;BME280;11648;49.306;6.934;2023-10-31T00:52:47;96903.38;;;16.14;73.25
22964;BME280;11648;49.306;6.934;2023-10-31T00:55:14;96921.63;;;16.04;73.40
22964;BME280;11648;49.306;6.934;2023-10-31T00:57:41;96915.44;;;16.19;73.21
22964;BME280;11648;49.306;6.934;2023-10-31T01:00:08;96910.47;;;16.13;73.44
22964;BME280;11648;49.306;6.934;2023-10-31T01:02:36;96919.72;;;16.22;73.26
22964;BME280;11648;49.306;6.934;2023-10-31T01:05:03;96915.47;;;16.04;74.02
22964;BME280;11648;49.306;6.934;2023-10-31T01:07:30;96929.03;;;15.84;74.33
22964;BME280;11648;49.306;6.934;2023-10-31T01:09:57;96927.47;;;15.79;74.19
22964;BME280;11648;49.306;6.934;2023-10-31T01:12:24;96923.84;;;16.12;73.48
22964;BME280;11648;49.306;6.934;2023-10-31T01:14:51;96934.66;;;15.93;73.95
22964;BME280;11648;49.306;6.934;2023-10-31T01:17:18;96929.78;;;15.70;74.92
22964;BME280;11648;49.306;6.934;2023-10-31T01:19:44;96933.28;;;15.86;74.48
22964;BME280;11648;49.306;6.934;2023-10-31T01:22:11;96940.63;;;15.81;74.83
22964;BME280;11648;49.306;6.934;2023-10-31T01:24:38;96927.63;;;15.92;74.20
22964;BME280;11648;49.306;6.934;2023-10-31T01:27:05;96939.69;;;16.13;73.47
22964;BME280;11648;49.306;6.934;2023-10-31T01:29:32;96917.19;;;15.89;74.08
22964;BME280;11648;49.306;6.934;2023-10-31T01:31:59;96924.34;;;16.18;73.14
22964;BME280;11648;49.306;6.934;2023-10-31T01:34:31;96927.72;;;15.91;74.05
22964;BME280;11648;49.306;6.934;2023-10-31T01:36:58;96927.69;;;16.22;72.59
22964;BME280;11648;49.306;6.934;2023-10-31T01:39:26;96918.13;;;15.88;73.52
22964;BME280;11648;49.306;6.934;2023-10-31T01:41:53;96924.66;;;15.82;73.72
22964;BME280;11648;49.306;6.934;2023-10-31T01:44:21;96916.50;;;16.01;73.07
22964;BME280;11648;49.306;6.934;2023-10-31T01:46:48;96926.63;;;15.95;73.04
22964;BME280;11648;49.306;6.934;2023-10-31T01:49:15;96919.53;;;15.79;73.55
22964;BME280;11648;49.306;6.934;2023-10-31T01:51:44;96923.00;;;15.96;72.90
22964;BME280;11648;49.306;6.934;2023-10-31T01:54:12;96924.66;;;15.98;72.79
22964;BME280;11648;49.306;6.934;2023-10-31T01:56:40;96927.06;;;15.87;73.18
22964;BME280;11648;49.306;6.934;2023-10-31T01:59:07;96937.75;;;15.86;73.04
22964;BME280;11648;49.306;6.934;2023-10-31T02:01:40;96937.22;;;15.63;73.74
22964;BME280;11648;49.306;6.934;2023-10-31T02:04:08;96935.34;;;15.81;73.03
22964;BME280;11648;49.306;6.934;2023-10-31T02:06:35;96936.88;;;15.85;72.78
22964;BME280;11648;49.306;6.934;2023-10-31T02:09:01;96935.41;;;15.95;72.74
22964;BME280;11648;49.306;6.934;2023-10-31T02:11:28;96936.88;;;16.01;72.38
22964;BME280;11648;49.306;6.934;2023-10-31T02:13:55;96947.41;;;15.87;72.67
22964;BME280;11648;49.306;6.934;2023-10-31T02:16:22;96952.97;;;15.98;72.58
22964;BME280;11648;49.306;6.934;2023-10-31T02:18:49;96949.53;;;15.96;72.06
22964;BME280;11648;49.306;6.934;2023-10-31T02:21:19;96951.34;;;16.11;71.79
22964;BME280;11648;49.306;6.934;2023-10-31T02:23:59;96955.72;;;16.12;71.50
22964;BME280;11648;49.306;6.934;2023-10-31T02:26:34;96966.69;;;15.90;72.07
22964;BME280;11648;49.306;6.934;2023-10-31T02:29:01;96962.41;;;15.88;72.18
22964;BME280;11648;49.306;6.934;2023-10-31T02:31:29;96954.66;;;15.99;71.72
22964;BME280;11648;49.306;6.934;2023-10-31T02:33:56;96956.13;;;15.57;72.61
22964;BME280;11648;49.306;6.934;2023-10-31T02:36:23;96957.44;;;15.66;71.96
22964;BME280;11648;49.306;6.934;2023-10-31T02:38:50;96959.56;;;15.91;70.91
22964;BME280;11648;49.306;6.934;2023-10-31T02:41:17;96962.22;;;15.91;71.29
22964;BME280;11648;49.306;6.934;2023-10-31T02:43:43;96963.66;;;15.96;70.78
22964;BME280;11648;49.306;6.934;2023-10-31T02:46:11;96956.56;;;15.97;70.85
22964;BME280;11648;49.306;6.934;2023-10-31T02:48:40;96968.47;;;16.05;70.52
22964;BME280;11648;49.306;6.934;2023-10-31T02:51:07;96962.88;;;16.10;70.12
22964;BME280;11648;49.306;6.934;2023-10-31T02:53:34;96967.34;;;15.78;70.70
22964;BME280;11648;49.306;6.934;2023-10-31T02:56:02;96977.19;;;15.92;70.55
22964;BME280;11648;49.306;6.934;2023-10-31T02:58:29;96977.63;;;16.00;70.15
22964;BME280;11648;49.306;6.934;2023-10-31T03:00:56;96977.94;;;16.25;69.30
22964;BME280;11648;49.306;6.934;2023-10-31T03:03:23;96977.78;;;15.81;70.28
22964;BME280;11648;49.306;6.934;2023-10-31T03:05:50;96985.00;;;15.95;69.81
22964;BME280;11648;49.306;6.934;2023-10-31T03:08:16;96985.31;;;15.89;70.03
22964;BME280;11648;49.306;6.934;2023-10-31T03:10:48;96986.00;;;15.92;70.29
22964;BME280;11648;49.306;6.934;2023-10-31T03:13:19;96982.78;;;15.87;70.36
22964;BME280;11648;49.306;6.934;2023-10-31T03:15:46;96982.59;;;15.90;70.21
22964;BME280;11648;49.306;6.934;2023-10-31T03:18:14;96980.13;;;15.87;70.18
22964;BME280;11648;49.306;6.934;2023-10-31T03:20:45;96991.75;;;15.85;69.73
22964;BME280;11648;49.306;6.934;2023-10-31T03:23:13;96984.63;;;15.85;69.85
22964;BME280;11648;49.306;6.934;2023-10-31T03:25:40;96984.16;;;15.94;69.36
22964;BME280;11648;49.306;6.934;2023-10-31T03:28:19;96989.03;;;16.02;69.31
22964;BME280;11648;49.306;6.934;2023-10-31T03:30:47;96987.91;;;15.90;69.39
22964;BME280;11648;49.306;6.934;2023-10-31T03:33:15;96991.59;;;16.03;69.17
22964;BME280;11648;49.306;6.934;2023-10-31T03:35:43;96989.88;;;15.87;69.52
22964;BME280;11648;49.306;6.934;2023-10-31T03:38:10;96990.81;;;15.86;69.25
22964;BME280;11648;49.306;6.934;2023-10-31T03:40:38;96995.28;;;16.01;69.22
22964;BME280;11648;49.306;6.934;2023-10-31T03:43:05;96985.84;;;15.79;69.25
22964;BME280;11648;49.306;6.934;2023-10-31T03:45:32;96993.78;;;15.95;68.98
22964;BME280;11648;49.306;6.934;2023-10-31T03:47:59;96992.63;;;16.01;69.04
22964;BME280;11648;49.306;6.934;2023-10-31T03:50:26;96998.84;;;15.68;69.77
22964;BME280;11648;49.306;6.934;2023-10-31T03:52:53;97001.53;;;15.84;69.39
22964;BME280;11648;49.306;6.934;2023-10-31T03:55:20;97002.03;;;15.91;69.37
22964;BME280;11648;49.306;6.934;2023-10-31T03:57:47;97011.34;;;15.82;69.46
22964;BME280;11648;49.306;6.934;2023-10-31T04:00:14;97008.19;;;16.07;68.82
22964;BME280;11648;49.306;6.934;2023-10-31T04:02:41;97019.31;;;16.13;68.83
22964;BME280;11648;49.306;6.934;2023-10-31T04:05:08;97022.75;;;16.15;68.73
22964;BME280;11648;49.306;6.934;2023-10-31T04:07:35;97025.84;;;16.08;68.87
22964;BME280;11648;49.306;6.934;2023-10-31T04:10:02;97026.53;;;16.11;68.57
22964;BME280;11648;49.306;6.934;2023-10-31T04:12:29;97035.59;;;16.07;68.85
22964;BME280;11648;49.306;6.934;2023-10-31T04:14:56;97043.53;;;15.92;69.30
22964;BME280;11648;49.306;6.934;2023-10-31T04:17:23;97039.53;;;16.00;68.80
22964;BME280;11648;49.306;6.934;2023-10-31T04:19:50;97042.25;;;15.99;68.87
22964;BME280;11648;49.306;6.934;2023-10-31T04:22:17;97039.34;;;16.03;69.11
22964;BME280;11648;49.306;6.934;2023-10-31T04:24:44;97041.94;;;16.05;68.94
22964;BME280;11648;49.306;6.934;2023-10-31T04:27:10;97037.47;;;15.90;69.45
22964;BME280;11648;49.306;6.934;2023-10-31T04:29:37;97047.06;;;15.92;69.38
22964;BME280;11648;49.306;6.934;2023-10-31T04:32:04;97049.28;;;15.84;69.76
22964;BME280;11648;49.306;6.934;2023-10-31T04:34:31;97053.13;;;15.78;69.69
22964;BME280;11648;49.306;6.934;2023-10-31T04:36:58;97059.81;;;15.86;69.71
22964;BME280;11648;49.306;6.934;2023-10-31T04:39:25;97062.22;;;15.90;69.37
22964;BME280;11648;49.306;6.934;2023-10-31T04:41:52;97062.03;;;15.93;69.30
22964;BME280;11648;49.306;6.934;2023-10-31T04:44:19;97065.53;;;15.78;69.68
22964;BME280;11648;49.306;6.934;2023-10-31T04:46:48;97065.94;;;15.70;70.07
22964;BME280;11648;49.306;6.934;2023-10-31T04:49:15;97074.69;;;15.38;70.85
22964;BME280;11648;49.306;6.934;2023-10-31T04:51:42;97073.47;;;15.62;70.16
22964;BME280;11648;49.306;6.934;2023-10-31T04:54:10;97081.94;;;15.69;70.05
22964;BME280;11648;49.306;6.934;2023-10-31T04:56:36;97070.31;;;15.71;69.72
22964;BME280;11648;49.306;6.934;2023-10-31T04:59:03;97071.03;;;15.58;70.18
22964;BME280;11648;49.306;6.934;2023-10-31T05:01:30;97068.84;;;15.66;69.74
22964;BME280;11648;49.306;6.934;2023-10-31T05:03:57;97075.03;;;15.82;69.35
22964;BME280;11648;49.306;6.934;2023-10-31T05:06:38;97068.56;;;15.88;69.14
22964;BME280;11648;49.306;6.934;2023-10-31T05:09:04;97064.59;;;15.79;68.99
22964;BME280;11648;49.306;6.934;2023-10-31T05:11:32;97066.22;;;15.49;69.84
22964;BME280;11648;49.306;6.934;2023-10-31T05:13:59;97070.06;;;15.76;69.07
22964;BME280;11648;49.306;6.934;2023-10-31T05:16:25;97075.09;;;15.65;69.50
22964;BME280;11648;49.306;6.934;2023-10-31T05:18:52;97071.63;;;15.63;69.28
22964;BME280;11648;49.306;6.934;2023-10-31T05:21:20;97075.53;;;15.73;68.86
22964;BME280;11648;49.306;6.934;2023-10-31T05:23:50;97082.00;;;15.67;69.08
22964;BME280;11648;49.306;6.934;2023-10-31T05:26:17;97079.00;;;15.58;69.40
22964;BME280;11648;49.306;6.934;2023-10-31T05:28:44;97078.38;;;15.86;68.52
22964;BME280;11648;49.306;6.934;2023-10-31T05:31:11;97075.81;;;16.00;68.23
22964;BME280;11648;49.306;6.934;2023-10-31T05:33:39;97083.63;;;16.03;67.96
22964;BME280;11648;49.306;6.934;2023-10-31T05:36:06;97082.94;;;15.99;68.08
22964;BME280;11648;49.306;6.934;2023-10-31T05:38:33;97083.09;;;15.96;68.11
22964;BME280;11648;49.306;6.934;2023-10-31T05:40:59;97079.53;;;15.97;68.03
22964;BME280;11648;49.306;6.934;2023-10-31T05:43:26;97086.56;;;15.98;68.00
22964;BME280;11648;49.306;6.934;2023-10-31T05:45:53;97086.78;;;15.94;68.31
22964;BME280;11648;49.306;6.934;2023-10-31T05:48:20;97095.28;;;16.00;68.20
22964;BME280;11648;49.306;6.934;2023-10-31T05:50:46;97104.16;;;15.66;68.78
22964;BME280;11648;49.306;6.934;2023-10-31T05:53:13;97100.47;;;15.86;68.35
22964;BME280;11648;49.306;6.934;2023-10-31T05:55:40;97108.44;;;15.86;68.30
22964;BME280;11648;49.306;6.934;2023-10-31T05:58:07;97110.69;;;15.94;68.16
22964;BME280;11648;49.306;6.934;2023-10-31T06:00:34;97108.84;;;15.78;68.51
22964;BME280;11648;49.306;6.934;2023-10-31T06:03:01;97117.25;;;15.87;68.20
22964;BME280;11648;49.306;6.934;2023-10-31T06:05:29;97121.09;;;15.64;68.55
22964;BME280;11648;49.306;6.934;2023-10-31T06:07:56;97119.81;;;15.88;68.04
22964;BME280;11648;49.306;6.934;2023-10-31T06:10:22;97126.38;;;15.81;68.24
22964;BME280;11648;49.306;6.934;2023-10-31T06:12:49;97127.94;;;15.85;68.26
22964;BME280;11648;49.306;6.934;2023-10-31T06:15:16;97137.22;;;15.94;67.95
22964;BME280;11648;49.306;6.934;2023-10-31T06:17:43;97144.47;;;15.90;68.00
22964;BME280;11648;49.306;6.934;2023-10-31T06:20:10;97146.06;;;16.10;67.49
22964;BME280;11648;49.306;6.934;2023-10-31T06:22:38;97151.28;;;16.11;67.24
22964;BME280;11648;49.306;6.934;2023-10-31T06:25:04;97160.63;;;15.86;68.02
22964;BME280;11648;49.306;6.934;2023-10-31T06:27:32;97161.38;;;16.05;67.52
22964;BME280;11648;49.306;6.934;2023-10-31T06:29:59;97159.03;;;16.16;67.15
22964;BME280;11648;49.306;6.934;2023-10-31T06:32:45;97169.59;;;16.00;67.75
22964;BME280;11648;49.306;6.934;2023-10-31T06:35:12;97178.31;;;16.19;67.09
22964;BME280;11648;49.306;6.934;2023-10-31T06:37:39;97190.13;;;15.97;67.60
22964;BME280;11648;49.306;6.934;2023-10-31T06:40:06;97202.94;;;15.89;68.27
22964;BME280;11648;49.306;6.934;2023-10-31T06:42:35;97207.63;;;15.84;68.29
22964;BME280;11648;49.306;6.934;2023-10-31T06:45:03;97207.25;;;15.91;68.14
22964;BME280;11648;49.306;6.934;2023-10-31T06:47:32;97217.88;;;15.91;68.17
22964;BME280;11648;49.306;6.934;2023-10-31T06:49:59;97209.81;;;15.75;68.21
22964;BME280;11648;49.306;6.934;2023-10-31T06:52:26;97211.84;;;15.70;68.15
22964;BME280;11648;49.306;6.934;2023-10-31T06:54:52;97219.81;;;15.88;67.62
22964;BME280;11648;49.306;6.934;2023-10-31T06:57:19;97221.38;;;15.74;67.35
22964;BME280;11648;49.306;6.934;2023-10-31T06:59:46;97222.84;;;15.97;66.98
22964;BME280;11648;49.306;6.934;2023-10-31T07:02:13;97222.22;;;15.75;67.69
22964;BME280;11648;49.306;6.934;2023-10-31T07:04:40;97227.84;;;15.86;67.57
22964;BME280;11648;49.306;6.934;2023-10-31T07:07:07;97230.66;;;15.83;67.68
22964;BME280;11648;49.306;6.934;2023-10-31T07:09:34;97232.22;;;15.87;67.51
22964;BME280;11648;49.306;6.934;2023-10-31T07:12:01;97245.34;;;15.90;67.57
22964;BME280;11648;49.306;6.934;2023-10-31T07:14:28;97249.47;;;15.78;68.05
22964;BME280;11648;49.306;6.934;2023-10-31T07:16:56;97261.31;;;15.89;67.74
22964;BME280;11648;49.306;6.934;2023-10-31T07:19:23;97256.97;;;15.88;68.02
22964;BME280;11648;49.306;6.934;2023-10-31T07:21:50;97251.97;;;15.81;68.27
22964;BME280;11648;49.306;6.934;2023-10-31T07:24:16;97258.75;;;15.87;68.02
22964;BME280;11648;49.306;6.934;2023-10-31T07:26:43;97265.78;;;15.71;68.42
22964;BME280;11648;49.306;6.934;2023-10-31T07:29:10;97251.25;;;15.78;68.32
22964;BME280;11648;49.306;6.934;2023-10-31T07:31:38;97257.56;;;15.93;67.99
22964;BME280;11648;49.306;6.934;2023-10-31T07:34:05;97263.97;;;15.71;68.23
22964;BME280;11648;49.306;6.934;2023-10-31T07:36:32;97268.41;;;15.71;68.49
22964;BME280;11648;49.306;6.934;2023-10-31T07:39:01;97271.78;;;15.74;68.49
22964;BME280;11648;49.306;6.934;2023-10-31T07:41:29;97266.03;;;15.84;68.26
22964;BME280;11648;49.306;6.934;2023-10-31T07:43:56;97272.47;;;15.95;68.06
22964;BME280;11648;49.306;6.934;2023-10-31T07:46:23;97274.28;;;15.95;68.24
22964;BME280;11648;49.306;6.934;2023-10-31T07:48:50;97266.63;;;15.89;68.01
22964;BME280;11648;49.306;6.934;2023-10-31T07:51:17;97274.84;;;15.84;68.01
22964;BME280;11648;49.306;6.934;2023-10-31T07:53:43;97279.19;;;16.02;67.63
22964;BME280;11648;49.306;6.934;2023-10-31T07:56:17;97277.66;;;15.98;68.08
22964;BME280;11648;49.306;6.934;2023-10-31T07:58:45;97274.44;;;16.09;67.95
22964;BME280;11648;49.306;6.934;2023-10-31T08:01:12;97277.22;;;16.06;68.02
22964;BME280;11648;49.306;6.934;2023-10-31T08:03:39;97277.66;;;16.31;67.52
22964;BME280;11648;49.306;6.934;2023-10-31T08:06:06;97279.72;;;16.26;67.31
22964;BME280;11648;49.306;6.934;2023-10-31T08:08:34;97280.31;;;16.48;66.78
22964;BME280;11648;49.306;6.934;2023-10-31T08:11:00;97287.13;;;16.37;67.30
22964;BME280;11648;49.306;6.934;2023-10-31T08:13:27;97286.03;;;16.41;67.16
22964;BME280;11648;49.306;6.934;2023-10-31T08:15:54;97288.03;;;16.53;67.18
22964;BME280;11648;49.306;6.934;2023-10-31T08:18:23;97288.69;;;16.58;66.83
22964;BME280;11648;49.306;6.934;2023-10-31T08:20:50;97290.25;;;16.77;66.79
22964;BME280;11648;49.306;6.934;2023-10-31T08:23:17;97293.69;;;16.79;67.12
22964;BME280;11648;49.306;6.934;2023-10-31T08:25:44;97300.75;;;16.96;66.93
22964;BME280;11648;49.306;6.934;2023-10-31T08:28:11;97299.41;;;17.05;66.48
22964;BME280;11648;49.306;6.934;2023-10-31T08:30:38;97296.66;;;17.22;65.93
22964;BME280;11648;49.306;6.934;2023-10-31T08:33:05;97303.78;;;17.06;66.15
22964;BME280;11648;49.306;6.934;2023-10-31T08:35:36;97306.75;;;17.00;66.36
22964;BME280;11648;49.306;6.934;2023-10-31T08:38:04;97306.84;;;16.98;66.79
22964;BME280;11648;49.306;6.934;2023-10-31T08:40:31;97313.63;;;17.04;66.65
22964;BME280;11648;49.306;6.934;2023-10-31T08:42:58;97316.38;;;17.02;66.67
22964;BME280;11648;49.306;6.934;2023-10-31T08:45:24;97325.63;;;16.95;66.96
22964;BME280;11648;49.306;6.934;2023-10-31T08:47:51;97329.56;;;16.88;66.94
22964;BME280;11648;49.306;6.934;2023-10-31T08:50:18;97323.78;;;17.13;66.43
22964;BME280;11648;49.306;6.934;2023-10-31T08:52:45;97326.94;;;17.35;66.19
22964;BME280;11648;49.306;6.934;2023-10-31T08:55:12;97328.56;;;17.22;66.30
22964;BME280;11648;49.306;6.934;2023-10-31T08:57:39;97330.19;;;17.40;66.01
22964;BME280;11648;49.306;6.934;2023-10-31T09:00:06;97328.56;;;17.85;65.51
22964;BME280;11648;49.306;6.934;2023-10-31T09:02:33;97332.81;;;18.03;64.34
22964;BME280;11648;49.306;6.934;2023-10-31T09:05:00;97318.66;;;18.46;62.60
22964;BME280;11648;49.306;6.934;2023-10-31T09:07:27;97322.91;;;18.79;61.70
22964;BME280;11648;49.306;6.934;2023-10-31T09:09:54;97318.34;;;18.66;61.11
22964;BME280;11648;49.306;6.934;2023-10-31T09:12:21;97318.63;;;18.76;60.41
22964;BME280;11648;49.306;6.934;2023-10-31T09:14:47;97316.13;;;18.87;60.25
22964;BME280;11648;49.306;6.934;2023-10-31T09:17:14;97320.03;;;19.24;59.02
22964;BME280;11648;49.306;6.934;2023-10-31T09:19:41;97326.28;;;19.37;58.63
22964;BME280;11648;49.306;6.934;2023-10-31T09:22:08;97323.75;;;19.21;59.15
22964;BME280;11648;49.306;6.934;2023-10-31T09:24:35;97327.66;;;19.02;59.82
22964;BME280;11648;49.306;6.934;2023-10-31T09:27:02;97327.16;;;19.23;59.78
22964;BME280;11648;49.306;6.934;2023-10-31T09:29:29;97315.72;;;20.16;57.01
22964;BME280;11648;49.306;6.934;2023-10-31T09:31:56;97312.41;;;21.15;53.87
22964;BME280;11648;49.306;6.934;2023-10-31T09:34:23;97305.53;;;21.60;52.10
22964;BME280;11648;49.306;6.934;2023-10-31T09:36:50;97311.44;;;20.91;52.67
22964;BME280;11648;49.306;6.934;2023-10-31T09:39:17;97313.88;;;20.31;54.53
22964;BME280;11648;49.306;6.934;2023-10-31T09:41:44;97336.88;;;19.80;56.29
22964;BME280;11648;49.306;6.934;2023-10-31T09:44:11;97347.28;;;19.01;58.48
22964;BME280;11648;49.306;6.934;2023-10-31T09:46:38;97355.47;;;18.84;59.83
22964;BME280;11648;49.306;6.934;2023-10-31T09:49:08;97353.63;;;18.56;60.34
22964;BME280;11648;49.306;6.934;2023-10-31T09:51:35;97346.72;;;18.67;60.47
22964;BME280;11648;49.306;6.934;2023-10-31T09:54:02;97350.69;;;18.60;60.64
22964;BME280;11648;49.306;6.934;2023-10-31T09:56:30;97352.41;;;18.61;61.40
22964;BME280;11648;49.306;6.934;2023-10-31T09:59:01;97349.66;;;19.19;59.46
22964;BME280;11648;49.306;6.934;2023-10-31T10:01:29;97339.81;;;19.89;58.21
22964;BME280;11648;49.306;6.934;2023-10-31T10:03:56;97334.97;;;19.82;57.26
22964;BME280;11648;49.306;6.934;2023-10-31T10:06:24;97337.53;;;19.83;56.89
22964;BME280;11648;49.306;6.934;2023-10-31T10:08:51;97337.22;;;19.88;56.79
22964;BME280;11648;49.306;6.934;2023-10-31T10:11:18;97347.75;;;19.77;57.14
22964;BME280;11648;49.306;6.934;2023-10-31T10:13:45;97343.19;;;19.23;58.19
22964;BME280;11648;49.306;6.934;2023-10-31T10:16:12;97351.66;;;19.02;58.49
22964;BME280;11648;49.306;6.934;2023-10-31T10:18:39;97351.88;;;18.99;59.13
22964;BME280;11648;49.306;6.934;2023-10-31T10:21:08;97362.59;;;18.83;59.88
22964;BME280;11648;49.306;6.934;2023-10-31T10:23:35;97358.25;;;18.82;60.30
22964;BME280;11648;49.306;6.934;2023-10-31T10:26:02;97361.53;;;18.71;60.50
22964;BME280;11648;49.306;6.934;2023-10-31T10:28:30;97360.41;;;19.04;59.75
22964;BME280;11648;49.306;6.934;2023-10-31T10:30:57;97352.50;;;19.31;58.50
22964;BME280;11648;49.306;6.934;2023-10-31T10:33:23;97351.66;;;19.44;57.62
22964;BME280;11648;49.306;6.934;2023-10-31T10:35:50;97354.75;;;19.65;57.75
22964;BME280;11648;49.306;6.934;2023-10-31T10:38:18;97350.50;;;19.89;57.37
22964;BME280;11648;49.306;6.934;2023-10-31T10:40:47;97354.31;;;19.44;58.23
22964;BME280;11648;49.306;6.934;2023-10-31T10:43:23;97356.59;;;19.36;58.52
22964;BME280;11648;49.306;6.934;2023-10-31T10:45:53;97362.63;;;19.11;59.41
22964;BME280;11648;49.306;6.934;2023-10-31T10:48:26;97363.88;;;18.92;59.95
22964;BME280;11648;49.306;6.934;2023-10-31T10:50:59;97357.94;;;19.01;59.77
22964;BME280;11648;49.306;6.934;2023-10-31T10:53:44;97357.78;;;19.18;59.52
22964;BME280;11648;49.306;6.934;2023-10-31T10:56:19;97353.75;;;19.39;58.81
22964;BME280;11648;49.306;6.934;2023-10-31T10:58:55;97355.56;;;19.53;58.27
22964;BME280;11648;49.306;6.934;2023-10-31T11:01:24;97330.28;;;20.77;53.94
22964;BME280;11648;49.306;6.934;2023-10-31T11:03:52;97322.31;;;21.75;51.28
22964;BME280;11648;49.306;6.934;2023-10-31T11:06:21;97317.69;;;22.24;49.85
22964;BME280;11648;49.306;6.934;2023-10-31T11:08:49;97313.31;;;22.58;48.61
22964;BME280;11648;49.306;6.934;2023-10-31T11:11:16;97307.66;;;22.74;47.85
22964;BME280;11648;49.306;6.934;2023-10-31T11:13:44;97310.09;;;22.53;47.09
22964;BME280;11648;49.306;6.934;2023-10-31T11:16:29;97312.28;;;22.37;47.98
22964;BME280;11648;49.306;6.934;2023-10-31T11:18:56;97312.28;;;22.13;46.61
22964;BME280;11648;49.306;6.934;2023-10-31T11:21:23;97278.97;;;25.19;41.28
22964;BME280;11648;49.306;6.934;2023-10-31T11:23:57;97248.53;;;28.10;34.23
22964;BME280;11648;49.306;6.934;2023-10-31T11:26:30;97232.69;;;29.86;31.23
22964;BME280;11648;49.306;6.934;2023-10-31T11:29:04;97251.06;;;31.05;28.38
22964;BME280;11648;49.306;6.934;2023-10-31T11:31:32;97239.44;;;33.11;26.21
22964;BME280;11648;49.306;6.934;2023-10-31T11:34:01;97227.22;;;35.14;23.51
22964;BME280;11648;49.306;6.934;2023-10-31T11:36:31;97216.88;;;36.78;22.41
22964;BME280;11648;49.306;6.934;2023-10-31T11:39:12;97231.50;;;35.64;23.05
22964;BME280;11648;49.306;6.934;2023-10-31T11:41:50;97242.91;;;33.63;24.66
22964;BME280;11648;49.306;6.934;2023-10-31T11:44:17;97268.28;;;31.45;27.65
22964;BME280;11648;49.306;6.934;2023-10-31T11:46:44;97274.09;;;29.20;30.27
22964;BME280;11648;49.306;6.934;2023-10-31T11:49:17;97286.94;;;28.14;32.33
22964;BME280;11648;49.306;6.934;2023-10-31T11:51:46;97300.63;;;26.93;34.55
22964;BME280;11648;49.306;6.934;2023-10-31T11:54:15;97308.69;;;25.38;36.91
22964;BME280;11648;49.306;6.934;2023-10-31T11:56:50;97320.47;;;24.66;38.87
22964;BME280;11648;49.306;6.934;2023-10-31T11:59:18;97334.06;;;23.89;41.06
22964;BME280;11648;49.306;6.934;2023-10-31T12:01:46;97333.03;;;23.14;42.77
22964;BME280;11648;49.306;6.934;2023-10-31T12:04:23;97343.72;;;22.46;44.36
22964;BME280;11648;49.306;6.934;2023-10-31T12:06:58;97341.75;;;22.02;45.99
22964;BME280;11648;49.306;6.934;2023-10-31T12:09:25;97358.56;;;21.67;47.32
22964;BME280;11648;49.306;6.934;2023-10-31T12:11:52;97354.75;;;21.46;47.93
22964;BME280;11648;49.306;6.934;2023-10-31T12:14:19;97359.19;;;21.22;49.21
22964;BME280;11648;49.306;6.934;2023-10-31T12:16:47;97361.97;;;21.21;49.09
22964;BME280;11648;49.306;6.934;2023-10-31T12:19:14;97362.56;;;21.49;48.55
22964;BME280;11648;49.306;6.934;2023-10-31T12:21:42;97353.94;;;21.21;48.92
22964;BME280;11648;49.306;6.934;2023-10-31T12:24:12;97362.28;;;21.03;49.21
22964;BME280;11648;49.306;6.934;2023-10-31T12:26:39;97359.16;;;20.84;49.93
22964;BME280;11648;49.306;6.934;2023-10-31T12:31:46;97353.31;;;21.17;48.90
22964;BME280;11648;49.306;6.934;2023-10-31T12:34:18;97357.34;;;21.35;48.88
22964;BME280;11648;49.306;6.934;2023-10-31T12:36:46;97354.66;;;21.35;48.68
22964;BME280;11648;49.306;6.934;2023-10-31T12:39:14;97358.00;;;21.01;48.40
22964;BME280;11648;49.306;6.934;2023-10-31T12:41:43;97353.28;;;21.04;48.52
22964;BME280;11648;49.306;6.934;2023-10-31T12:44:11;97362.28;;;20.78;49.05
22964;BME280;11648;49.306;6.934;2023-10-31T12:46:40;97361.72;;;20.73;49.55
22964;BME280;11648;49.306;6.934;2023-10-31T12:49:12;97366.75;;;20.65;50.65
22964;BME280;11648;49.306;6.934;2023-10-31T12:52:03;97361.09;;;20.57;51.03
22964;BME280;11648;49.306;6.934;2023-10-31T12:54:32;97373.00;;;20.12;51.91
22964;BME280;11648;49.306;6.934;2023-10-31T12:57:02;97372.81;;;20.15;52.71
22964;BME280;11648;49.306;6.934;2023-10-31T12:59:31;97375.94;;;20.21;52.82
22964;BME280;11648;49.306;6.934;2023-10-31T13:01:58;97373.06;;;20.25;53.24
22964;BME280;11648;49.306;6.934;2023-10-31T13:04:27;97377.63;;;20.22;52.87
22964;BME280;11648;49.306;6.934;2023-10-31T13:07:06;97381.78;;;20.41;52.73